Yangon, Burma
Current Conditions -  °F | °C
As of 10:00 PM on Friday 28 Nov 2014 (Local Time) from VYYY Reporting Station
Clear Clear  
Wind Chill: 75°   Ceiling: Unl
Heat Index: 75°   Visibility: 4mi
Dew Point: 70°   Wind: 3mph
Humidity: 83%   Direction: 60°ENE
Pressure: 29.88"   Gusts: NA
Location:  16.79°N, 96.15°E
Report Text: VYYY 281600Z 06003KT 6000 R21/2000N NSC 24/21 Q1012 NOSIG
Loading
Personal Weather Stations






























Interactive Weather Map New forecast layout! Learn more

10-Day Weather Forecast

Advertisements
Track Severe Weather on mobile